sensor_id;sensor_type;location;lat;lon;timestamp;P1;durP1;ratioP1;P2;durP2;ratioP2
13228;SDS011;6680;53.220;10.402;2022-08-01T00:02:11;9.10;;;5.30;;
13228;SDS011;6680;53.220;10.402;2022-08-01T00:04:38;7.03;;;4.90;;
13228;SDS011;6680;53.220;10.402;2022-08-01T00:07:04;6.40;;;5.57;;
13228;SDS011;6680;53.220;10.402;2022-08-01T00:09:31;5.20;;;4.70;;
13228;SDS011;6680;53.220;10.402;2022-08-01T00:11:58;6.73;;;5.10;;
13228;SDS011;6680;53.220;10.402;2022-08-01T00:14:24;6.33;;;5.17;;
13228;SDS011;6680;53.220;10.402;2022-08-01T00:16:52;5.97;;;5.40;;
13228;SDS011;6680;53.220;10.402;2022-08-01T00:19:19;6.10;;;5.50;;
13228;SDS011;6680;53.220;10.402;2022-08-01T00:21:46;6.33;;;5.70;;
13228;SDS011;6680;53.220;10.402;2022-08-01T00:24:12;6.60;;;5.90;;
13228;SDS011;6680;53.220;10.402;2022-08-01T00:26:39;13.97;;;6.37;;
13228;SDS011;6680;53.220;10.402;2022-08-01T00:29:06;6.33;;;5.23;;
13228;SDS011;6680;53.220;10.402;2022-08-01T00:31:32;6.73;;;5.70;;
13228;SDS011;6680;53.220;10.402;2022-08-01T00:34:01;6.47;;;5.53;;
13228;SDS011;6680;53.220;10.402;2022-08-01T00:36:27;5.80;;;5.20;;
13228;SDS011;6680;53.220;10.402;2022-08-01T00:38:54;6.90;;;5.70;;
13228;SDS011;6680;53.220;10.402;2022-08-01T00:41:21;7.47;;;6.03;;
13228;SDS011;6680;53.220;10.402;2022-08-01T00:43:47;6.53;;;5.93;;
13228;SDS011;6680;53.220;10.402;2022-08-01T00:46:14;7.63;;;5.80;;
13228;SDS011;6680;53.220;10.402;2022-08-01T00:48:41;12.93;;;6.60;;
13228;SDS011;6680;53.220;10.402;2022-08-01T00:51:09;7.90;;;5.90;;
13228;SDS011;6680;53.220;10.402;2022-08-01T00:53:36;8.83;;;5.77;;
13228;SDS011;6680;53.220;10.402;2022-08-01T00:56:03;7.27;;;5.80;;
13228;SDS011;6680;53.220;10.402;2022-08-01T00:58:30;6.47;;;5.80;;
13228;SDS011;6680;53.220;10.402;2022-08-01T01:00:58;10.00;;;6.40;;
13228;SDS011;6680;53.220;10.402;2022-08-01T01:03:25;6.77;;;6.10;;
13228;SDS011;6680;53.220;10.402;2022-08-01T01:05:55;7.10;;;5.77;;
13228;SDS011;6680;53.220;10.402;2022-08-01T01:08:30;8.10;;;6.57;;
13228;SDS011;6680;53.220;10.402;2022-08-01T01:11:03;8.23;;;6.47;;
13228;SDS011;6680;53.220;10.402;2022-08-01T01:13:37;6.37;;;5.60;;
13228;SDS011;6680;53.220;10.402;2022-08-01T01:16:10;6.83;;;4.73;;
13228;SDS011;6680;53.220;10.402;2022-08-01T01:18:42;7.67;;;6.40;;
13228;SDS011;6680;53.220;10.402;2022-08-01T01:21:13;7.33;;;5.77;;
13228;SDS011;6680;53.220;10.402;2022-08-01T01:24:11;6.87;;;5.87;;
13228;SDS011;6680;53.220;10.402;2022-08-01T01:26:49;9.13;;;7.23;;
13228;SDS011;6680;53.220;10.402;2022-08-01T01:29:20;6.67;;;5.93;;
13228;SDS011;6680;53.220;10.402;2022-08-01T01:31:51;6.60;;;5.27;;
13228;SDS011;6680;53.220;10.402;2022-08-01T01:34:21;6.87;;;5.80;;
13228;SDS011;6680;53.220;10.402;2022-08-01T01:36:50;7.53;;;6.10;;
13228;SDS011;6680;53.220;10.402;2022-08-01T01:39:20;6.73;;;5.87;;
13228;SDS011;6680;53.220;10.402;2022-08-01T01:41:48;8.10;;;6.27;;
13228;SDS011;6680;53.220;10.402;2022-08-01T01:44:15;6.70;;;5.37;;
13228;SDS011;6680;53.220;10.402;2022-08-01T01:46:44;5.27;;;4.73;;
13228;SDS011;6680;53.220;10.402;2022-08-01T01:49:12;7.73;;;5.57;;
13228;SDS011;6680;53.220;10.402;2022-08-01T01:51:40;6.90;;;5.90;;
13228;SDS011;6680;53.220;10.402;2022-08-01T01:54:08;6.63;;;5.63;;
13228;SDS011;6680;53.220;10.402;2022-08-01T01:56:35;6.37;;;5.67;;
13228;SDS011;6680;53.220;10.402;2022-08-01T01:59:13;8.03;;;6.60;;
13228;SDS011;6680;53.220;10.402;2022-08-01T02:01:45;6.03;;;5.40;;
13228;SDS011;6680;53.220;10.402;2022-08-01T02:04:14;6.30;;;5.70;;
13228;SDS011;6680;53.220;10.402;2022-08-01T02:06:41;5.80;;;5.20;;
13228;SDS011;6680;53.220;10.402;2022-08-01T02:09:09;9.23;;;6.27;;
13228;SDS011;6680;53.220;10.402;2022-08-01T02:11:38;9.13;;;6.13;;
13228;SDS011;6680;53.220;10.402;2022-08-01T02:14:05;7.27;;;6.07;;
13228;SDS011;6680;53.220;10.402;2022-08-01T02:16:34;8.17;;;5.90;;
13228;SDS011;6680;53.220;10.402;2022-08-01T02:19:04;8.70;;;6.47;;
13228;SDS011;6680;53.220;10.402;2022-08-01T02:21:32;6.63;;;5.93;;
13228;SDS011;6680;53.220;10.402;2022-08-01T02:24:07;8.07;;;5.60;;
13228;SDS011;6680;53.220;10.402;2022-08-01T02:26:39;7.80;;;6.67;;
13228;SDS011;6680;53.220;10.402;2022-08-01T02:29:10;8.57;;;6.33;;
13228;SDS011;6680;53.220;10.402;2022-08-01T02:31:41;9.33;;;6.53;;
13228;SDS011;6680;53.220;10.402;2022-08-01T02:34:13;8.87;;;6.67;;
13228;SDS011;6680;53.220;10.402;2022-08-01T02:36:43;7.80;;;6.03;;
13228;SDS011;6680;53.220;10.402;2022-08-01T02:39:13;8.47;;;6.57;;
13228;SDS011;6680;53.220;10.402;2022-08-01T02:41:41;8.40;;;6.17;;
13228;SDS011;6680;53.220;10.402;2022-08-01T02:44:12;9.83;;;7.60;;
13228;SDS011;6680;53.220;10.402;2022-08-01T02:46:46;8.90;;;5.80;;
13228;SDS011;6680;53.220;10.402;2022-08-01T02:49:18;7.47;;;6.17;;
13228;SDS011;6680;53.220;10.402;2022-08-01T02:51:46;7.87;;;6.50;;
13228;SDS011;6680;53.220;10.402;2022-08-01T02:54:14;7.77;;;6.50;;
13228;SDS011;6680;53.220;10.402;2022-08-01T02:56:43;8.40;;;6.60;;
13228;SDS011;6680;53.220;10.402;2022-08-01T02:59:12;11.40;;;6.57;;
13228;SDS011;6680;53.220;10.402;2022-08-01T03:01:41;9.00;;;6.77;;
13228;SDS011;6680;53.220;10.402;2022-08-01T03:04:10;7.10;;;5.93;;
13228;SDS011;6680;53.220;10.402;2022-08-01T03:06:39;7.20;;;5.73;;
13228;SDS011;6680;53.220;10.402;2022-08-01T03:09:06;7.73;;;6.20;;
13228;SDS011;6680;53.220;10.402;2022-08-01T03:11:34;6.90;;;5.80;;
13228;SDS011;6680;53.220;10.402;2022-08-01T03:14:04;6.47;;;5.83;;
13228;SDS011;6680;53.220;10.402;2022-08-01T03:16:35;8.13;;;6.33;;
13228;SDS011;6680;53.220;10.402;2022-08-01T03:19:03;10.07;;;6.70;;
13228;SDS011;6680;53.220;10.402;2022-08-01T03:21:32;6.80;;;4.90;;
13228;SDS011;6680;53.220;10.402;2022-08-01T03:24:01;6.23;;;5.40;;
13228;SDS011;6680;53.220;10.402;2022-08-01T03:26:32;5.97;;;5.27;;
13228;SDS011;6680;53.220;10.402;2022-08-01T03:29:02;6.00;;;5.27;;
13228;SDS011;6680;53.220;10.402;2022-08-01T03:31:32;5.30;;;4.63;;
13228;SDS011;6680;53.220;10.402;2022-08-01T03:34:00;6.07;;;5.00;;
13228;SDS011;6680;53.220;10.402;2022-08-01T03:36:27;5.83;;;4.77;;
13228;SDS011;6680;53.220;10.402;2022-08-01T03:38:57;8.00;;;5.50;;
13228;SDS011;6680;53.220;10.402;2022-08-01T03:41:27;5.87;;;4.77;;
13228;SDS011;6680;53.220;10.402;2022-08-01T03:44:03;5.00;;;4.17;;
13228;SDS011;6680;53.220;10.402;2022-08-01T03:46:35;5.00;;;4.33;;
13228;SDS011;6680;53.220;10.402;2022-08-01T03:49:10;6.60;;;5.07;;
13228;SDS011;6680;53.220;10.402;2022-08-01T03:51:40;4.37;;;3.97;;
13228;SDS011;6680;53.220;10.402;2022-08-01T03:54:09;5.80;;;4.07;;
13228;SDS011;6680;53.220;10.402;2022-08-01T03:56:39;5.43;;;4.73;;
13228;SDS011;6680;53.220;10.402;2022-08-01T03:59:08;10.30;;;4.10;;
13228;SDS011;6680;53.220;10.402;2022-08-01T04:01:36;4.73;;;4.30;;
13228;SDS011;6680;53.220;10.402;2022-08-01T04:04:03;6.90;;;4.47;;
13228;SDS011;6680;53.220;10.402;2022-08-01T04:06:31;5.77;;;4.67;;
13228;SDS011;6680;53.220;10.402;2022-08-01T04:08:57;4.37;;;3.97;;
13228;SDS011;6680;53.220;10.402;2022-08-01T04:11:25;4.63;;;4.20;;
13228;SDS011;6680;53.220;10.402;2022-08-01T04:13:55;5.30;;;4.37;;
13228;SDS011;6680;53.220;10.402;2022-08-01T04:16:23;7.87;;;3.77;;
13228;SDS011;6680;53.220;10.402;2022-08-01T04:18:49;4.30;;;3.90;;
13228;SDS011;6680;53.220;10.402;2022-08-01T04:21:17;4.87;;;3.87;;
13228;SDS011;6680;53.220;10.402;2022-08-01T04:23:46;7.63;;;4.17;;
13228;SDS011;6680;53.220;10.402;2022-08-01T04:26:13;4.97;;;4.03;;
13228;SDS011;6680;53.220;10.402;2022-08-01T04:28:41;6.43;;;4.53;;
13228;SDS011;6680;53.220;10.402;2022-08-01T04:31:10;4.57;;;4.13;;
13228;SDS011;6680;53.220;10.402;2022-08-01T04:33:40;5.40;;;3.93;;
13228;SDS011;6680;53.220;10.402;2022-08-01T04:36:11;4.67;;;3.77;;
13228;SDS011;6680;53.220;10.402;2022-08-01T04:38:40;4.17;;;3.77;;
13228;SDS011;6680;53.220;10.402;2022-08-01T04:41:11;3.80;;;3.47;;
13228;SDS011;6680;53.220;10.402;2022-08-01T04:43:38;5.53;;;3.50;;
13228;SDS011;6680;53.220;10.402;2022-08-01T04:46:06;4.47;;;3.33;;
13228;SDS011;6680;53.220;10.402;2022-08-01T04:48:37;3.93;;;3.53;;
13228;SDS011;6680;53.220;10.402;2022-08-01T04:51:04;6.73;;;3.37;;
13228;SDS011;6680;53.220;10.402;2022-08-01T04:53:40;4.00;;;3.23;;
13228;SDS011;6680;53.220;10.402;2022-08-01T04:56:07;3.27;;;2.97;;
13228;SDS011;6680;53.220;10.402;2022-08-01T04:58:34;4.97;;;3.50;;
13228;SDS011;6680;53.220;10.402;2022-08-01T05:01:01;4.57;;;3.57;;
13228;SDS011;6680;53.220;10.402;2022-08-01T05:03:27;3.33;;;3.07;;
13228;SDS011;6680;53.220;10.402;2022-08-01T05:05:55;4.40;;;3.30;;
13228;SDS011;6680;53.220;10.402;2022-08-01T05:08:22;3.60;;;3.00;;
13228;SDS011;6680;53.220;10.402;2022-08-01T05:10:49;2.90;;;2.60;;
13228;SDS011;6680;53.220;10.402;2022-08-01T05:13:16;4.27;;;3.33;;
13228;SDS011;6680;53.220;10.402;2022-08-01T05:15:42;3.90;;;3.20;;
13228;SDS011;6680;53.220;10.402;2022-08-01T05:18:09;3.93;;;3.07;;
13228;SDS011;6680;53.220;10.402;2022-08-01T05:20:36;2.53;;;2.33;;
13228;SDS011;6680;53.220;10.402;2022-08-01T05:23:04;3.53;;;2.70;;
13228;SDS011;6680;53.220;10.402;2022-08-01T05:25:31;3.53;;;2.70;;
13228;SDS011;6680;53.220;10.402;2022-08-01T05:27:58;2.73;;;2.40;;
13228;SDS011;6680;53.220;10.402;2022-08-01T05:30:25;3.30;;;3.00;;
13228;SDS011;6680;53.220;10.402;2022-08-01T05:32:51;3.30;;;2.90;;
13228;SDS011;6680;53.220;10.402;2022-08-01T05:35:18;3.60;;;2.53;;
13228;SDS011;6680;53.220;10.402;2022-08-01T05:37:45;2.77;;;2.17;;
13228;SDS011;6680;53.220;10.402;2022-08-01T05:40:13;3.70;;;2.33;;
13228;SDS011;6680;53.220;10.402;2022-08-01T05:42:39;2.80;;;2.33;;
13228;SDS011;6680;53.220;10.402;2022-08-01T05:45:06;2.77;;;2.57;;
13228;SDS011;6680;53.220;10.402;2022-08-01T05:47:33;3.37;;;2.20;;
13228;SDS011;6680;53.220;10.402;2022-08-01T05:50:00;3.30;;;2.40;;
13228;SDS011;6680;53.220;10.402;2022-08-01T05:52:26;2.20;;;1.90;;
13228;SDS011;6680;53.220;10.402;2022-08-01T05:54:53;3.60;;;2.47;;
13228;SDS011;6680;53.220;10.402;2022-08-01T05:57:21;2.50;;;2.30;;
13228;SDS011;6680;53.220;10.402;2022-08-01T05:59:48;2.40;;;2.20;;
13228;SDS011;6680;53.220;10.402;2022-08-01T06:02:15;2.13;;;1.90;;
13228;SDS011;6680;53.220;10.402;2022-08-01T06:04:41;2.20;;;2.00;;
13228;SDS011;6680;53.220;10.402;2022-08-01T06:07:08;2.27;;;2.13;;
13228;SDS011;6680;53.220;10.402;2022-08-01T06:09:35;2.90;;;1.80;;
13228;SDS011;6680;53.220;10.402;2022-08-01T06:12:02;2.23;;;2.03;;
13228;SDS011;6680;53.220;10.402;2022-08-01T06:14:30;1.97;;;1.87;;
13228;SDS011;6680;53.220;10.402;2022-08-01T06:16:57;2.03;;;1.83;;
13228;SDS011;6680;53.220;10.402;2022-08-01T06:19:24;1.87;;;1.77;;
13228;SDS011;6680;53.220;10.402;2022-08-01T06:21:51;1.80;;;1.70;;
13228;SDS011;6680;53.220;10.402;2022-08-01T06:24:18;2.00;;;1.60;;
13228;SDS011;6680;53.220;10.402;2022-08-01T06:26:44;1.97;;;1.60;;
13228;SDS011;6680;53.220;10.402;2022-08-01T06:29:11;2.43;;;2.23;;
13228;SDS011;6680;53.220;10.402;2022-08-01T06:31:39;1.47;;;1.37;;
13228;SDS011;6680;53.220;10.402;2022-08-01T06:34:06;1.90;;;1.80;;
13228;SDS011;6680;53.220;10.402;2022-08-01T06:36:32;1.60;;;1.50;;
13228;SDS011;6680;53.220;10.402;2022-08-01T06:38:59;2.13;;;1.97;;
13228;SDS011;6680;53.220;10.402;2022-08-01T06:41:26;2.10;;;1.90;;
13228;SDS011;6680;53.220;10.402;2022-08-01T06:43:52;1.90;;;1.80;;
13228;SDS011;6680;53.220;10.402;2022-08-01T06:46:19;1.93;;;1.83;;
13228;SDS011;6680;53.220;10.402;2022-08-01T06:48:47;1.90;;;1.80;;
13228;SDS011;6680;53.220;10.402;2022-08-01T06:51:14;1.50;;;1.40;;
13228;SDS011;6680;53.220;10.402;2022-08-01T06:53:44;1.80;;;1.70;;
13228;SDS011;6680;53.220;10.402;2022-08-01T06:56:11;2.00;;;1.90;;
13228;SDS011;6680;53.220;10.402;2022-08-01T06:58:38;2.43;;;2.23;;
13228;SDS011;6680;53.220;10.402;2022-08-01T07:01:05;2.50;;;2.30;;
13228;SDS011;6680;53.220;10.402;2022-08-01T07:03:32;2.47;;;2.17;;
13228;SDS011;6680;53.220;10.402;2022-08-01T07:06:01;3.07;;;2.87;;
13228;SDS011;6680;53.220;10.402;2022-08-01T07:08:28;2.47;;;2.27;;
13228;SDS011;6680;53.220;10.402;2022-08-01T07:10:54;2.90;;;2.70;;
13228;SDS011;6680;53.220;10.402;2022-08-01T07:13:24;2.60;;;2.40;;
13228;SDS011;6680;53.220;10.402;2022-08-01T07:15:51;3.97;;;3.10;;
13228;SDS011;6680;53.220;10.402;2022-08-01T07:18:18;3.00;;;2.77;;
13228;SDS011;6680;53.220;10.402;2022-08-01T07:20:45;2.73;;;2.53;;
13228;SDS011;6680;53.220;10.402;2022-08-01T07:23:13;3.10;;;2.63;;
13228;SDS011;6680;53.220;10.402;2022-08-01T07:25:40;3.80;;;2.60;;
13228;SDS011;6680;53.220;10.402;2022-08-01T07:28:07;3.07;;;2.87;;
13228;SDS011;6680;53.220;10.402;2022-08-01T07:30:34;3.17;;;2.87;;
13228;SDS011;6680;53.220;10.402;2022-08-01T07:33:01;2.93;;;2.70;;
13228;SDS011;6680;53.220;10.402;2022-08-01T07:35:27;3.37;;;3.07;;
13228;SDS011;6680;53.220;10.402;2022-08-01T07:37:54;3.10;;;2.90;;
13228;SDS011;6680;53.220;10.402;2022-08-01T07:40:22;3.10;;;2.90;;
13228;SDS011;6680;53.220;10.402;2022-08-01T07:42:49;2.90;;;2.70;;
13228;SDS011;6680;53.220;10.402;2022-08-01T07:45:16;3.00;;;2.80;;
13228;SDS011;6680;53.220;10.402;2022-08-01T07:47:43;2.63;;;2.43;;
13228;SDS011;6680;53.220;10.402;2022-08-01T07:50:10;3.23;;;3.03;;
13228;SDS011;6680;53.220;10.402;2022-08-01T07:52:37;2.83;;;2.63;;
13228;SDS011;6680;53.220;10.402;2022-08-01T07:55:04;2.83;;;2.63;;
13228;SDS011;6680;53.220;10.402;2022-08-01T07:57:33;2.83;;;2.57;;
13228;SDS011;6680;53.220;10.402;2022-08-01T08:00:00;2.77;;;2.57;;
13228;SDS011;6680;53.220;10.402;2022-08-01T08:02:28;3.37;;;2.87;;
13228;SDS011;6680;53.220;10.402;2022-08-01T08:04:55;3.07;;;2.87;;
13228;SDS011;6680;53.220;10.402;2022-08-01T08:07:21;3.20;;;2.83;;
13228;SDS011;6680;53.220;10.402;2022-08-01T08:09:48;3.30;;;3.00;;
13228;SDS011;6680;53.220;10.402;2022-08-01T08:12:15;2.93;;;2.73;;
13228;SDS011;6680;53.220;10.402;2022-08-01T08:14:43;3.20;;;2.80;;
13228;SDS011;6680;53.220;10.402;2022-08-01T08:17:09;2.60;;;2.40;;
13228;SDS011;6680;53.220;10.402;2022-08-01T08:19:36;2.07;;;1.97;;
13228;SDS011;6680;53.220;10.402;2022-08-01T08:22:04;2.60;;;2.40;;
13228;SDS011;6680;53.220;10.402;2022-08-01T08:24:31;2.90;;;2.70;;
13228;SDS011;6680;53.220;10.402;2022-08-01T08:26:58;3.10;;;2.23;;
13228;SDS011;6680;53.220;10.402;2022-08-01T08:29:27;2.47;;;2.10;;
13228;SDS011;6680;53.220;10.402;2022-08-01T08:31:56;3.80;;;2.07;;
13228;SDS011;6680;53.220;10.402;2022-08-01T08:34:24;5.60;;;2.30;;
13228;SDS011;6680;53.220;10.402;2022-08-01T08:36:52;2.87;;;2.50;;
13228;SDS011;6680;53.220;10.402;2022-08-01T08:39:20;3.70;;;2.23;;
13228;SDS011;6680;53.220;10.402;2022-08-01T08:41:47;2.53;;;2.33;;
13228;SDS011;6680;53.220;10.402;2022-08-01T08:44:14;4.57;;;2.57;;
13228;SDS011;6680;53.220;10.402;2022-08-01T08:46:42;4.50;;;2.57;;
13228;SDS011;6680;53.220;10.402;2022-08-01T08:49:12;2.73;;;2.53;;
13228;SDS011;6680;53.220;10.402;2022-08-01T08:51:42;2.73;;;2.53;;
13228;SDS011;6680;53.220;10.402;2022-08-01T08:54:13;5.23;;;2.77;;
13228;SDS011;6680;53.220;10.402;2022-08-01T08:56:41;2.60;;;2.40;;
13228;SDS011;6680;53.220;10.402;2022-08-01T08:59:10;3.03;;;2.73;;
13228;SDS011;6680;53.220;10.402;2022-08-01T09:01:38;6.97;;;2.90;;
13228;SDS011;6680;53.220;10.402;2022-08-01T09:04:05;5.97;;;2.97;;
13228;SDS011;6680;53.220;10.402;2022-08-01T09:06:34;3.20;;;2.90;;
13228;SDS011;6680;53.220;10.402;2022-08-01T09:09:00;2.90;;;2.70;;
13228;SDS011;6680;53.220;10.402;2022-08-01T09:11:27;3.03;;;2.80;;
13228;SDS011;6680;53.220;10.402;2022-08-01T09:14:07;4.57;;;2.77;;
13228;SDS011;6680;53.220;10.402;2022-08-01T09:16:36;3.23;;;2.90;;
13228;SDS011;6680;53.220;10.402;2022-08-01T09:19:07;6.43;;;3.17;;
13228;SDS011;6680;53.220;10.402;2022-08-01T09:21:37;2.83;;;2.20;;
13228;SDS011;6680;53.220;10.402;2022-08-01T09:24:13;3.23;;;2.90;;
13228;SDS011;6680;53.220;10.402;2022-08-01T09:26:40;4.53;;;2.80;;
13228;SDS011;6680;53.220;10.402;2022-08-01T09:29:07;2.80;;;2.60;;
13228;SDS011;6680;53.220;10.402;2022-08-01T09:31:44;12.17;;;2.60;;
13228;SDS011;6680;53.220;10.402;2022-08-01T09:34:12;4.67;;;3.20;;
13228;SDS011;6680;53.220;10.402;2022-08-01T09:36:44;4.07;;;3.27;;
13228;SDS011;6680;53.220;10.402;2022-08-01T09:39:16;8.53;;;3.10;;
13228;SDS011;6680;53.220;10.402;2022-08-01T09:41:44;5.03;;;3.33;;
13228;SDS011;6680;53.220;10.402;2022-08-01T09:44:11;5.33;;;2.80;;
13228;SDS011;6680;53.220;10.402;2022-08-01T09:46:45;3.77;;;2.87;;
13228;SDS011;6680;53.220;10.402;2022-08-01T09:49:29;5.07;;;3.03;;
13228;SDS011;6680;53.220;10.402;2022-08-01T09:52:00;4.60;;;2.97;;
13228;SDS011;6680;53.220;10.402;2022-08-01T09:54:36;3.23;;;2.70;;
13228;SDS011;6680;53.220;10.402;2022-08-01T09:57:11;4.10;;;2.30;;
13228;SDS011;6680;53.220;10.402;2022-08-01T09:59:41;2.73;;;2.30;;
13228;SDS011;6680;53.220;10.402;2022-08-01T10:02:09;5.50;;;2.20;;
13228;SDS011;6680;53.220;10.402;2022-08-01T10:04:45;5.57;;;2.13;;
13228;SDS011;6680;53.220;10.402;2022-08-01T10:07:14;5.23;;;2.50;;
13228;SDS011;6680;53.220;10.402;2022-08-01T10:09:41;3.37;;;2.10;;
13228;SDS011;6680;53.220;10.402;2022-08-01T10:12:10;2.70;;;2.20;;
13228;SDS011;6680;53.220;10.402;2022-08-01T10:14:38;2.23;;;2.03;;
13228;SDS011;6680;53.220;10.402;2022-08-01T10:17:06;1.63;;;1.53;;
13228;SDS011;6680;53.220;10.402;2022-08-01T10:19:35;3.40;;;2.03;;
13228;SDS011;6680;53.220;10.402;2022-08-01T10:22:04;1.90;;;1.70;;
13228;SDS011;6680;53.220;10.402;2022-08-01T10:24:35;2.97;;;2.07;;
13228;SDS011;6680;53.220;10.402;2022-08-01T10:27:05;3.03;;;1.60;;
13228;SDS011;6680;53.220;10.402;2022-08-01T10:29:35;3.03;;;2.00;;
13228;SDS011;6680;53.220;10.402;2022-08-01T10:32:05;3.57;;;2.00;;
13228;SDS011;6680;53.220;10.402;2022-08-01T10:34:34;2.03;;;1.67;;
13228;SDS011;6680;53.220;10.402;2022-08-01T10:37:01;2.33;;;2.13;;
13228;SDS011;6680;53.220;10.402;2022-08-01T10:39:30;4.27;;;2.23;;
13228;SDS011;6680;53.220;10.402;2022-08-01T10:41:59;2.90;;;2.23;;
13228;SDS011;6680;53.220;10.402;2022-08-01T10:44:27;2.47;;;2.10;;
13228;SDS011;6680;53.220;10.402;2022-08-01T10:46:56;5.90;;;2.57;;
13228;SDS011;6680;53.220;10.402;2022-08-01T10:49:28;5.30;;;2.60;;
13228;SDS011;6680;53.220;10.402;2022-08-01T10:51:56;5.37;;;2.80;;
13228;SDS011;6680;53.220;10.402;2022-08-01T10:54:23;4.73;;;2.67;;
13228;SDS011;6680;53.220;10.402;2022-08-01T10:56:51;4.27;;;2.80;;
13228;SDS011;6680;53.220;10.402;2022-08-01T10:59:21;4.03;;;2.70;;
13228;SDS011;6680;53.220;10.402;2022-08-01T11:01:57;3.07;;;2.63;;
13228;SDS011;6680;53.220;10.402;2022-08-01T11:04:32;5.53;;;2.87;;
13228;SDS011;6680;53.220;10.402;2022-08-01T11:07:03;4.97;;;2.83;;
13228;SDS011;6680;53.220;10.402;2022-08-01T11:09:39;5.30;;;3.17;;
13228;SDS011;6680;53.220;10.402;2022-08-01T11:12:08;5.70;;;3.10;;
13228;SDS011;6680;53.220;10.402;2022-08-01T11:17:42;5.47;;;2.83;;
13228;SDS011;6680;53.220;10.402;2022-08-01T11:20:13;3.03;;;2.70;;
13228;SDS011;6680;53.220;10.402;2022-08-01T11:26:13;2.80;;;2.50;;
13228;SDS011;6680;53.220;10.402;2022-08-01T11:28:44;3.60;;;2.77;;
13228;SDS011;6680;53.220;10.402;2022-08-01T11:31:26;3.60;;;2.37;;
13228;SDS011;6680;53.220;10.402;2022-08-01T11:33:58;6.37;;;2.77;;
13228;SDS011;6680;53.220;10.402;2022-08-01T11:36:26;4.00;;;2.33;;
13228;SDS011;6680;53.220;10.402;2022-08-01T11:41:40;3.03;;;1.80;;
13228;SDS011;6680;53.220;10.402;2022-08-01T11:44:09;2.43;;;2.23;;
13228;SDS011;6680;53.220;10.402;2022-08-01T11:46:50;2.43;;;2.07;;
13228;SDS011;6680;53.220;10.402;2022-08-01T11:49:23;3.20;;;2.20;;
13228;SDS011;6680;53.220;10.402;2022-08-01T11:51:57;2.33;;;2.07;;
13228;SDS011;6680;53.220;10.402;2022-08-01T11:54:25;3.60;;;2.00;;
13228;SDS011;6680;53.220;10.402;2022-08-01T11:56:54;3.03;;;1.90;;
13228;SDS011;6680;53.220;10.402;2022-08-01T11:59:22;4.00;;;1.93;;
13228;SDS011;6680;53.220;10.402;2022-08-01T12:01:49;2.10;;;2.00;;
13228;SDS011;6680;53.220;10.402;2022-08-01T12:04:15;2.90;;;2.00;;
13228;SDS011;6680;53.220;10.402;2022-08-01T12:06:44;1.90;;;1.80;;
13228;SDS011;6680;53.220;10.402;2022-08-01T12:09:17;8.20;;;2.37;;
13228;SDS011;6680;53.220;10.402;2022-08-01T12:11:45;3.83;;;2.13;;
13228;SDS011;6680;53.220;10.402;2022-08-01T12:14:16;3.87;;;2.00;;
13228;SDS011;6680;53.220;10.402;2022-08-01T12:16:48;5.90;;;2.07;;
13228;SDS011;6680;53.220;10.402;2022-08-01T12:19:19;3.40;;;1.87;;
13228;SDS011;6680;53.220;10.402;2022-08-01T12:24:36;4.23;;;2.00;;
13228;SDS011;6680;53.220;10.402;2022-08-01T12:27:04;3.27;;;1.93;;
13228;SDS011;6680;53.220;10.402;2022-08-01T12:29:32;4.97;;;1.87;;
13228;SDS011;6680;53.220;10.402;2022-08-01T12:32:00;3.10;;;2.07;;
13228;SDS011;6680;53.220;10.402;2022-08-01T12:34:27;5.13;;;2.10;;
13228;SDS011;6680;53.220;10.402;2022-08-01T12:36:55;2.13;;;1.80;;
13228;SDS011;6680;53.220;10.402;2022-08-01T12:39:29;2.47;;;2.00;;
13228;SDS011;6680;53.220;10.402;2022-08-01T12:41:59;4.63;;;2.20;;
13228;SDS011;6680;53.220;10.402;2022-08-01T12:44:27;2.83;;;1.93;;
13228;SDS011;6680;53.220;10.402;2022-08-01T12:46:55;3.07;;;2.17;;
13228;SDS011;6680;53.220;10.402;2022-08-01T12:49:23;4.13;;;1.40;;
13228;SDS011;6680;53.220;10.402;2022-08-01T12:51:50;2.73;;;1.60;;
13228;SDS011;6680;53.220;10.402;2022-08-01T12:54:17;7.80;;;1.97;;
13228;SDS011;6680;53.220;10.402;2022-08-01T12:56:45;3.23;;;2.00;;
13228;SDS011;6680;53.220;10.402;2022-08-01T12:59:19;4.03;;;2.10;;
13228;SDS011;6680;53.220;10.402;2022-08-01T13:01:47;2.13;;;1.70;;
13228;SDS011;6680;53.220;10.402;2022-08-01T13:04:14;4.10;;;1.90;;
13228;SDS011;6680;53.220;10.402;2022-08-01T13:06:40;3.30;;;2.50;;
13228;SDS011;6680;53.220;10.402;2022-08-01T13:09:07;2.60;;;2.07;;
13228;SDS011;6680;53.220;10.402;2022-08-01T13:11:35;3.43;;;1.80;;
13228;SDS011;6680;53.220;10.402;2022-08-01T13:14:03;4.20;;;2.27;;
13228;SDS011;6680;53.220;10.402;2022-08-01T13:16:30;4.10;;;1.87;;
13228;SDS011;6680;53.220;10.402;2022-08-01T13:18:57;2.70;;;2.20;;
13228;SDS011;6680;53.220;10.402;2022-08-01T13:21:26;5.47;;;1.93;;
13228;SDS011;6680;53.220;10.402;2022-08-01T13:24:01;2.60;;;2.07;;
13228;SDS011;6680;53.220;10.402;2022-08-01T13:26:43;2.13;;;1.90;;
13228;SDS011;6680;53.220;10.402;2022-08-01T13:29:13;7.37;;;2.40;;
13228;SDS011;6680;53.220;10.402;2022-08-01T13:31:41;4.90;;;2.37;;
13228;SDS011;6680;53.220;10.402;2022-08-01T13:34:09;3.40;;;1.83;;
13228;SDS011;6680;53.220;10.402;2022-08-01T13:36:36;3.20;;;2.00;;
13228;SDS011;6680;53.220;10.402;2022-08-01T13:39:04;2.73;;;1.50;;
13228;SDS011;6680;53.220;10.402;2022-08-01T13:41:49;6.17;;;2.07;;
13228;SDS011;6680;53.220;10.402;2022-08-01T13:44:17;3.73;;;1.60;;
13228;SDS011;6680;53.220;10.402;2022-08-01T13:46:44;4.20;;;2.20;;
13228;SDS011;6680;53.220;10.402;2022-08-01T13:49:12;3.33;;;1.70;;
13228;SDS011;6680;53.220;10.402;2022-08-01T13:51:39;1.73;;;1.63;;
13228;SDS011;6680;53.220;10.402;2022-08-01T13:54:06;1.87;;;1.70;;
13228;SDS011;6680;53.220;10.402;2022-08-01T13:56:33;3.37;;;1.90;;
13228;SDS011;6680;53.220;10.402;2022-08-01T13:59:00;3.03;;;1.73;;
13228;SDS011;6680;53.220;10.402;2022-08-01T14:01:28;4.93;;;2.10;;
13228;SDS011;6680;53.220;10.402;2022-08-01T14:03:55;4.80;;;1.83;;
13228;SDS011;6680;53.220;10.402;2022-08-01T14:06:21;3.50;;;2.07;;
13228;SDS011;6680;53.220;10.402;2022-08-01T14:08:48;2.07;;;1.60;;
13228;SDS011;6680;53.220;10.402;2022-08-01T14:11:15;5.23;;;1.87;;
13228;SDS011;6680;53.220;10.402;2022-08-01T14:13:42;2.07;;;1.77;;
13228;SDS011;6680;53.220;10.402;2022-08-01T14:16:09;2.83;;;1.90;;
13228;SDS011;6680;53.220;10.402;2022-08-01T14:18:37;5.27;;;2.40;;
13228;SDS011;6680;53.220;10.402;2022-08-01T14:21:04;1.90;;;1.67;;
13228;SDS011;6680;53.220;10.402;2022-08-01T14:23:30;2.97;;;1.80;;
13228;SDS011;6680;53.220;10.402;2022-08-01T14:25:57;3.47;;;1.70;;
13228;SDS011;6680;53.220;10.402;2022-08-01T14:28:24;2.07;;;1.50;;
13228;SDS011;6680;53.220;10.402;2022-08-01T14:30:52;2.90;;;1.80;;
13228;SDS011;6680;53.220;10.402;2022-08-01T14:33:20;1.80;;;1.70;;
13228;SDS011;6680;53.220;10.402;2022-08-01T14:35:49;4.43;;;1.90;;
13228;SDS011;6680;53.220;10.402;2022-08-01T14:38:15;2.17;;;1.70;;
13228;SDS011;6680;53.220;10.402;2022-08-01T14:40:42;5.20;;;1.87;;
13228;SDS011;6680;53.220;10.402;2022-08-01T14:43:11;3.33;;;1.70;;
13228;SDS011;6680;53.220;10.402;2022-08-01T14:45:38;3.63;;;1.80;;
13228;SDS011;6680;53.220;10.402;2022-08-01T14:48:05;3.93;;;2.00;;
13228;SDS011;6680;53.220;10.402;2022-08-01T14:50:32;4.70;;;1.90;;
13228;SDS011;6680;53.220;10.402;2022-08-01T14:53:00;3.77;;;2.03;;
13228;SDS011;6680;53.220;10.402;2022-08-01T14:55:26;3.70;;;1.80;;
13228;SDS011;6680;53.220;10.402;2022-08-01T14:57:53;3.00;;;1.83;;
13228;SDS011;6680;53.220;10.402;2022-08-01T15:00:20;4.50;;;1.57;;
13228;SDS011;6680;53.220;10.402;2022-08-01T15:02:47;1.80;;;1.70;;
13228;SDS011;6680;53.220;10.402;2022-08-01T15:05:14;4.87;;;2.00;;
13228;SDS011;6680;53.220;10.402;2022-08-01T15:07:41;3.83;;;2.00;;
13228;SDS011;6680;53.220;10.402;2022-08-01T15:10:09;4.10;;;2.20;;